createdAt,value
2022-07-29T00:01:58.125Z,23.07
2022-07-29T00:04:30.614Z,23.04
2022-07-29T00:07:01.336Z,23.07
2022-07-29T00:09:32.007Z,23.15
2022-07-29T00:12:04.412Z,23.28
2022-07-29T00:14:35.067Z,23.35
2022-07-29T00:17:05.839Z,23.48
2022-07-29T00:19:38.217Z,23.65
2022-07-29T00:24:38.650Z,23.72
2022-07-29T00:27:09.284Z,23.94
2022-07-29T00:29:39.962Z,24.11
2022-07-29T00:32:11.028Z,24.19
2022-07-29T00:35:00.056Z,24.23
2022-07-29T00:37:30.647Z,24.28
2022-07-29T00:40:01.297Z,24.30
2022-07-29T00:42:32.035Z,24.28
2022-07-29T00:45:02.597Z,24.45
2022-07-29T00:47:33.135Z,24.58
2022-07-29T00:50:05.553Z,24.70
2022-07-29T00:52:36.931Z,24.74
2022-07-29T00:55:09.075Z,24.77
2022-07-29T00:57:40.525Z,24.78
2022-07-29T01:00:13.799Z,24.88
2022-07-29T01:02:44.526Z,24.93
2022-07-29T01:05:17.017Z,24.86
2022-07-29T01:07:48.583Z,24.92
2022-07-29T01:10:20.386Z,25.01
2022-07-29T01:12:52.930Z,25.01
2022-07-29T01:15:23.810Z,25.12
2022-07-29T01:18:02.605Z,24.43
2022-07-29T01:20:51.690Z,24.84
2022-07-29T01:23:56.431Z,24.97
2022-07-29T01:26:43.216Z,25.06
2022-07-29T01:29:26.077Z,25.10
2022-07-29T01:32:09.988Z,25.22
2022-07-29T01:35:05.810Z,25.12
2022-07-29T01:37:43.243Z,25.45
2022-07-29T01:40:20.153Z,25.45
2022-07-29T01:42:58.354Z,25.40
2022-07-29T01:45:38.034Z,25.69
2022-07-29T01:48:15.873Z,25.82
2022-07-29T01:50:52.077Z,25.53
2022-07-29T01:53:37.779Z,25.46
2022-07-29T01:56:10.260Z,25.61
2022-07-29T01:58:43.815Z,25.59
2022-07-29T02:01:18.574Z,25.49
2022-07-29T02:03:50.664Z,25.78
2022-07-29T02:06:24.872Z,26.01
2022-07-29T02:08:57.850Z,26.22
2022-07-29T02:11:28.559Z,26.29
2022-07-29T02:14:01.897Z,25.95
2022-07-29T02:16:36.432Z,25.99
2022-07-29T02:19:08.322Z,25.71
2022-07-29T02:21:39.825Z,25.74
2022-07-29T02:24:12.468Z,25.98
2022-07-29T02:26:45.417Z,26.27
2022-07-29T02:29:18.262Z,26.37
2022-07-29T02:31:51.874Z,26.41
2022-07-29T02:34:24.181Z,26.48
2022-07-29T02:36:55.984Z,26.09
2022-07-29T02:39:28.244Z,25.94
2022-07-29T02:42:05.293Z,26.15
2022-07-29T02:44:36.215Z,26.63
2022-07-29T02:47:14.644Z,26.84
2022-07-29T02:49:53.143Z,26.95
2022-07-29T02:52:30.111Z,27.07
2022-07-29T02:55:05.600Z,27.23
2022-07-29T02:57:54.996Z,27.21
2022-07-29T03:00:29.566Z,27.23
2022-07-29T03:03:07.117Z,27.28
2022-07-29T03:05:38.809Z,27.11
2022-07-29T03:08:12.204Z,26.86
2022-07-29T03:10:47.330Z,26.82
2022-07-29T03:13:18.994Z,27.05
2022-07-29T03:15:50.964Z,27.23
2022-07-29T03:18:23.543Z,27.40
2022-07-29T03:20:54.273Z,27.49
2022-07-29T03:23:25.794Z,27.61
2022-07-29T03:25:56.673Z,27.62
2022-07-29T03:28:29.136Z,27.70
2022-07-29T03:30:59.843Z,27.81
2022-07-29T03:33:32.429Z,27.88
2022-07-29T03:36:04.234Z,27.90
2022-07-29T03:38:37.658Z,27.87
2022-07-29T03:41:13.169Z,27.87
2022-07-29T03:43:49.521Z,27.87
2022-07-29T03:46:21.999Z,28.02
2022-07-29T03:48:59.710Z,27.69
2022-07-29T03:51:33.379Z,27.51
2022-07-29T03:54:13.866Z,27.79
2022-07-29T03:56:47.995Z,27.97
2022-07-29T03:59:21.589Z,28.09
2022-07-29T04:01:52.756Z,28.11
2022-07-29T04:04:25.538Z,27.91
2022-07-29T04:06:57.961Z,27.75
2022-07-29T04:09:28.565Z,27.83
2022-07-29T04:12:02.857Z,27.76
2022-07-29T04:14:36.021Z,27.78
2022-07-29T04:17:07.659Z,27.90
2022-07-29T04:19:39.935Z,27.99
2022-07-29T04:22:10.541Z,28.12
2022-07-29T04:24:44.205Z,27.98
2022-07-29T04:27:15.162Z,27.78
2022-07-29T04:29:56.020Z,27.60
2022-07-29T04:32:28.325Z,27.43
2022-07-29T04:35:03.084Z,27.30
2022-07-29T04:37:33.697Z,27.49
2022-07-29T04:40:04.326Z,27.90
2022-07-29T04:42:35.002Z,28.11
2022-07-29T04:45:22.269Z,28.34
2022-07-29T04:47:53.464Z,28.44
2022-07-29T04:50:25.726Z,28.32
2022-07-29T04:52:56.309Z,28.16
2022-07-29T04:55:26.928Z,27.90
2022-07-29T04:57:57.558Z,27.70
2022-07-29T05:00:33.598Z,27.46
2022-07-29T05:03:04.373Z,27.39
2022-07-29T05:05:36.566Z,27.42
2022-07-29T05:08:07.473Z,27.49
2022-07-29T05:10:39.861Z,27.42
2022-07-29T05:13:10.938Z,27.11
2022-07-29T05:15:42.084Z,27.39
2022-07-29T05:18:12.666Z,27.33
2022-07-29T05:20:44.830Z,27.26
2022-07-29T05:23:16.481Z,27.20
2022-07-29T05:25:48.014Z,27.17
2022-07-29T05:28:18.653Z,27.06
2022-07-29T05:30:50.113Z,27.04
2022-07-29T05:33:35.808Z,27.00
2022-07-29T05:36:09.518Z,26.86
2022-07-29T05:38:40.340Z,26.80
2022-07-29T05:41:10.959Z,26.75
2022-07-29T05:43:41.578Z,26.68
2022-07-29T05:46:12.177Z,26.59
2022-07-29T05:48:42.897Z,26.46
2022-07-29T05:51:15.237Z,26.39
2022-07-29T05:53:46.606Z,26.30
2022-07-29T05:56:17.615Z,26.23
2022-07-29T05:58:48.246Z,26.09
2022-07-29T06:01:18.980Z,25.97
2022-07-29T06:03:49.631Z,25.86
2022-07-29T06:06:21.916Z,25.77
2022-07-29T06:08:53.084Z,25.81
2022-07-29T06:11:23.642Z,25.82
2022-07-29T06:13:54.965Z,25.80
2022-07-29T06:16:30.297Z,25.76
2022-07-29T06:19:01.270Z,25.73
2022-07-29T06:21:33.573Z,25.77
2022-07-29T06:24:04.150Z,25.76
2022-07-29T06:26:37.820Z,25.79
2022-07-29T06:29:10.934Z,25.76
2022-07-29T06:31:41.797Z,25.71
2022-07-29T06:34:12.474Z,25.61
2022-07-29T06:36:46.064Z,25.49
2022-07-29T06:39:16.919Z,25.31
2022-07-29T06:41:52.222Z,25.07
2022-07-29T06:44:22.842Z,24.94
2022-07-29T06:46:53.542Z,24.82
2022-07-29T06:49:25.393Z,24.70
2022-07-29T06:51:57.888Z,24.66
2022-07-29T06:54:28.464Z,24.67
2022-07-29T06:56:59.042Z,24.57
2022-07-29T06:59:35.028Z,24.51
2022-07-29T07:02:06.367Z,24.47
2022-07-29T07:04:37.308Z,24.37
2022-07-29T07:07:09.566Z,24.35
2022-07-29T07:09:40.972Z,24.35
2022-07-29T07:12:12.018Z,24.30
2022-07-29T07:14:44.105Z,24.22
2022-07-29T07:17:14.701Z,24.13
2022-07-29T07:19:45.351Z,24.09
2022-07-29T07:22:17.645Z,24.08
2022-07-29T07:24:48.290Z,24.03
2022-07-29T07:27:18.948Z,24.03
2022-07-29T07:29:49.506Z,24.09
2022-07-29T07:32:20.291Z,24.05
2022-07-29T07:34:51.024Z,24.03
2022-07-29T07:37:23.283Z,24.05
2022-07-29T07:39:53.899Z,23.98
2022-07-29T07:42:24.701Z,23.94
2022-07-29T07:45:12.428Z,23.84
2022-07-29T07:47:44.359Z,23.47
2022-07-29T07:50:18.843Z,23.76
2022-07-29T07:52:56.776Z,23.65
2022-07-29T07:55:27.886Z,23.46
2022-07-29T07:57:58.990Z,23.53
2022-07-29T08:00:29.707Z,23.47
2022-07-29T08:03:00.559Z,23.43
2022-07-29T08:05:31.317Z,23.37
2022-07-29T08:08:03.600Z,23.33
2022-07-29T08:10:51.183Z,23.31
2022-07-29T08:13:22.420Z,23.24
2022-07-29T08:15:59.271Z,23.15
2022-07-29T08:18:30.706Z,23.18
2022-07-29T08:21:01.462Z,23.19
2022-07-29T08:23:47.087Z,23.18
2022-07-29T08:26:19.537Z,23.06
2022-07-29T08:28:52.070Z,22.80
2022-07-29T08:31:22.821Z,22.72
2022-07-29T08:33:53.507Z,22.50
2022-07-29T08:36:24.404Z,22.53
2022-07-29T08:38:56.649Z,22.42
2022-07-29T08:41:28.198Z,22.40
2022-07-29T08:43:59.114Z,22.38
2022-07-29T08:46:29.803Z,22.29
2022-07-29T08:49:00.558Z,22.19
2022-07-29T08:51:31.460Z,22.09
2022-07-29T08:54:04.213Z,22.04
2022-07-29T08:56:35.144Z,21.97
2022-07-29T08:59:08.449Z,21.93
2022-07-29T09:01:51.799Z,21.92
2022-07-29T09:04:23.914Z,21.90
2022-07-29T09:06:58.260Z,21.81
2022-07-29T09:09:30.902Z,21.77
2022-07-29T09:12:05.780Z,21.74
2022-07-29T09:14:36.359Z,21.71
2022-07-29T09:17:07.537Z,21.62
2022-07-29T09:19:45.522Z,21.57
2022-07-29T09:22:31.953Z,21.53
2022-07-29T09:25:04.283Z,21.46
2022-07-29T09:27:37.982Z,21.40
2022-07-29T09:30:12.331Z,21.42
2022-07-29T09:33:02.992Z,21.37
2022-07-29T09:35:35.115Z,21.35
2022-07-29T09:38:15.351Z,21.29
2022-07-29T09:41:05.371Z,21.21
2022-07-29T09:43:37.525Z,21.10
2022-07-29T09:46:17.940Z,21.00
2022-07-29T09:48:48.734Z,20.93
2022-07-29T09:51:37.868Z,20.88
2022-07-29T09:54:27.546Z,20.79
2022-07-29T09:56:59.860Z,20.73
2022-07-29T09:59:30.455Z,20.66
2022-07-29T10:02:02.549Z,20.57
2022-07-29T10:04:44.140Z,20.55
2022-07-29T10:07:15.115Z,20.44
2022-07-29T10:09:56.413Z,20.52
2022-07-29T10:12:29.385Z,20.48
2022-07-29T10:15:00.947Z,20.44
2022-07-29T10:17:32.905Z,20.36
2022-07-29T10:20:07.148Z,20.33
2022-07-29T10:22:54.109Z,20.28
2022-07-29T10:25:26.030Z,20.15
2022-07-29T10:27:59.206Z,20.22
2022-07-29T10:30:31.139Z,20.19
2022-07-29T10:33:19.818Z,20.26
2022-07-29T10:36:13.035Z,20.24
2022-07-29T10:38:56.555Z,20.22
2022-07-29T10:41:59.813Z,20.22
2022-07-29T10:44:32.615Z,20.14
2022-07-29T10:47:03.726Z,20.13
2022-07-29T10:49:34.537Z,20.10
2022-07-29T10:52:07.276Z,20.03
2022-07-29T10:54:49.463Z,20.00
2022-07-29T10:57:52.661Z,20.02
2022-07-29T11:00:34.170Z,20.05
2022-07-29T11:03:10.547Z,20.08
2022-07-29T11:05:59.772Z,20.09
2022-07-29T11:08:32.632Z,20.06
2022-07-29T11:11:43.768Z,20.05
2022-07-29T11:14:19.283Z,19.98
2022-07-29T11:17:09.589Z,19.93
2022-07-29T11:19:50.984Z,19.83
2022-07-29T11:22:36.803Z,19.84
2022-07-29T11:25:50.172Z,19.80
2022-07-29T11:28:22.814Z,19.88
2022-07-29T11:30:56.974Z,19.80
2022-07-29T11:33:54.383Z,19.66
2022-07-29T11:36:27.951Z,19.70
2022-07-29T11:39:36.882Z,19.71
2022-07-29T11:42:32.063Z,19.72
2022-07-29T11:45:42.623Z,19.73
2022-07-29T11:48:28.541Z,19.69
2022-07-29T11:50:56.065Z,19.64
2022-07-29T11:53:32.401Z,19.64
2022-07-29T11:56:04.650Z,19.61
2022-07-29T11:58:36.088Z,19.63
2022-07-29T12:01:08.686Z,19.67
2022-07-29T12:03:39.309Z,19.67
2022-07-29T12:06:18.621Z,19.66
2022-07-29T12:08:51.810Z,19.66
2022-07-29T12:11:23.729Z,19.70
2022-07-29T12:13:54.985Z,19.63
2022-07-29T12:16:29.296Z,19.63
2022-07-29T12:19:04.555Z,19.57
2022-07-29T12:21:54.026Z,19.56
2022-07-29T12:24:27.780Z,19.56
2022-07-29T12:27:00.001Z,19.54
2022-07-29T12:29:34.988Z,19.42
2022-07-29T12:32:15.090Z,19.57
2022-07-29T12:34:50.803Z,19.59
2022-07-29T12:37:40.685Z,19.61
2022-07-29T12:40:13.459Z,19.46
2022-07-29T12:42:44.200Z,19.56
2022-07-29T12:45:15.027Z,19.55
2022-07-29T12:47:58.241Z,19.54
2022-07-29T12:50:28.848Z,19.56
2022-07-29T12:53:13.191Z,19.56
2022-07-29T12:55:50.751Z,19.57
2022-07-29T12:58:31.726Z,19.54
2022-07-29T13:01:17.386Z,19.40
2022-07-29T13:03:59.652Z,19.53
2022-07-29T13:06:39.718Z,19.52
2022-07-29T13:09:16.768Z,19.51
2022-07-29T13:11:49.043Z,19.54
2022-07-29T13:14:35.473Z,19.52
2022-07-29T13:17:09.508Z,19.54
2022-07-29T13:19:42.326Z,19.46
2022-07-29T13:22:13.746Z,19.47
2022-07-29T13:24:54.130Z,19.35
2022-07-29T13:27:26.529Z,19.47
2022-07-29T13:29:59.726Z,19.51
2022-07-29T13:32:31.353Z,19.52
2022-07-29T13:35:05.275Z,19.49
2022-07-29T13:37:36.722Z,19.50
2022-07-29T13:40:10.326Z,19.51
2022-07-29T13:42:41.051Z,19.52
2022-07-29T13:45:13.236Z,19.51
2022-07-29T13:47:49.244Z,19.55
2022-07-29T13:50:20.614Z,19.56
2022-07-29T13:52:52.418Z,19.58
2022-07-29T13:55:24.848Z,19.58
2022-07-29T13:57:55.474Z,19.57
2022-07-29T14:00:26.566Z,19.52
2022-07-29T14:02:57.174Z,19.53
2022-07-29T14:05:27.890Z,19.53
2022-07-29T14:07:58.592Z,19.51
2022-07-29T14:10:30.958Z,19.56
2022-07-29T14:13:01.608Z,19.57
2022-07-29T14:15:32.271Z,19.56
2022-07-29T14:18:03.000Z,19.57
2022-07-29T14:20:34.638Z,19.60
2022-07-29T14:23:05.440Z,19.58
2022-07-29T14:25:37.861Z,19.58
2022-07-29T14:28:11.628Z,19.60
2022-07-29T14:30:45.349Z,19.59
2022-07-29T14:33:16.144Z,19.55
2022-07-29T14:35:47.027Z,19.54
2022-07-29T14:38:17.649Z,19.55
2022-07-29T14:40:50.890Z,19.56
2022-07-29T14:43:21.875Z,19.59
2022-07-29T14:45:55.031Z,19.58
2022-07-29T14:48:27.900Z,19.59
2022-07-29T14:51:01.881Z,19.57
2022-07-29T14:53:35.578Z,19.58
2022-07-29T14:56:35.065Z,19.58
2022-07-29T14:58:59.401Z,19.55
2022-07-29T15:01:30.931Z,19.57
2022-07-29T15:04:01.610Z,19.58
2022-07-29T15:06:32.195Z,19.52
2022-07-29T15:09:02.797Z,19.48
2022-07-29T15:11:38.180Z,19.48
2022-07-29T15:14:09.441Z,19.48
2022-07-29T15:16:43.731Z,19.50
2022-07-29T15:19:18.584Z,19.45
2022-07-29T15:21:49.322Z,19.48
2022-07-29T15:24:20.444Z,19.47
2022-07-29T15:26:52.682Z,19.48
2022-07-29T15:29:23.855Z,19.47
2022-07-29T15:31:54.509Z,19.45
2022-07-29T15:34:25.409Z,19.43
2022-07-29T15:36:56.140Z,19.39
2022-07-29T15:39:26.791Z,19.46
2022-07-29T15:42:01.335Z,19.43
2022-07-29T15:44:32.293Z,19.45
2022-07-29T15:47:09.522Z,19.43
2022-07-29T15:49:47.970Z,19.44
2022-07-29T15:52:25.073Z,19.42
2022-07-29T15:54:57.618Z,19.46
2022-07-29T15:57:30.515Z,19.44
2022-07-29T16:00:01.152Z,19.46
2022-07-29T16:02:32.561Z,19.46
2022-07-29T16:05:03.137Z,19.48
2022-07-29T16:07:33.810Z,19.45
2022-07-29T16:10:04.642Z,19.43
2022-07-29T16:12:36.879Z,19.42
2022-07-29T16:15:10.230Z,19.44
2022-07-29T16:17:41.373Z,19.43
2022-07-29T16:20:14.045Z,19.39
2022-07-29T16:22:44.822Z,19.42
2022-07-29T16:25:15.432Z,19.44
2022-07-29T16:27:47.872Z,19.43
2022-07-29T16:30:18.528Z,19.43
2022-07-29T16:32:49.251Z,19.43
2022-07-29T16:35:19.926Z,19.41
2022-07-29T16:37:50.521Z,19.43
2022-07-29T16:40:21.292Z,19.43
2022-07-29T16:42:53.485Z,19.43
2022-07-29T16:45:24.166Z,19.42
2022-07-29T16:48:00.507Z,19.44
2022-07-29T16:50:32.259Z,19.47
2022-07-29T16:53:02.896Z,19.48
2022-07-29T16:55:33.426Z,19.48
2022-07-29T16:58:05.701Z,19.48
2022-07-29T17:00:36.405Z,19.47
2022-07-29T17:03:07.377Z,19.48
2022-07-29T17:05:50.412Z,19.23
2022-07-29T17:08:24.549Z,19.50
2022-07-29T17:10:55.519Z,19.46
2022-07-29T17:13:27.752Z,19.45
2022-07-29T17:16:00.590Z,19.47
2022-07-29T17:18:31.436Z,19.47
2022-07-29T17:21:02.005Z,19.48
2022-07-29T17:23:32.526Z,19.46
2022-07-29T17:26:03.178Z,19.42
2022-07-29T17:28:35.385Z,19.37
2022-07-29T17:31:06.018Z,19.37
2022-07-29T17:33:37.001Z,19.34
2022-07-29T17:36:24.489Z,19.37
2022-07-29T17:38:56.254Z,18.96
2022-07-29T17:41:28.277Z,19.35
2022-07-29T17:44:00.920Z,19.35
2022-07-29T17:46:31.840Z,19.38
2022-07-29T17:49:02.505Z,19.41
2022-07-29T17:51:33.300Z,19.42
2022-07-29T17:54:03.870Z,19.43
2022-07-29T17:56:34.731Z,19.43
2022-07-29T17:59:09.299Z,19.43
2022-07-29T18:01:42.155Z,19.43
2022-07-29T18:04:12.819Z,19.43
2022-07-29T18:06:43.364Z,19.44
2022-07-29T18:09:14.113Z,19.46
2022-07-29T18:11:45.770Z,19.45
2022-07-29T18:14:18.151Z,19.45
2022-07-29T18:16:48.895Z,19.44
2022-07-29T18:19:19.536Z,19.45
2022-07-29T18:21:54.455Z,19.43
2022-07-29T18:24:28.317Z,19.45
2022-07-29T18:26:59.141Z,19.45
2022-07-29T18:29:31.686Z,19.47
2022-07-29T18:32:02.476Z,19.45
2022-07-29T18:34:33.254Z,19.44
2022-07-29T18:37:03.970Z,19.43
2022-07-29T18:39:34.562Z,19.40
2022-07-29T18:42:05.230Z,19.37
2022-07-29T18:44:43.607Z,19.34
2022-07-29T18:47:14.611Z,19.35
2022-07-29T18:49:45.573Z,19.35
2022-07-29T18:52:16.197Z,19.34
2022-07-29T18:54:46.803Z,19.33
2022-07-29T18:57:54.745Z,19.35
2022-07-29T19:00:12.902Z,19.36
2022-07-29T19:02:43.699Z,19.37
2022-07-29T19:05:14.563Z,19.38
2022-07-29T19:07:45.184Z,19.37
2022-07-29T19:10:15.911Z,19.38
2022-07-29T19:12:46.535Z,19.39
2022-07-29T19:15:20.517Z,19.36
2022-07-29T19:17:51.514Z,19.28
2022-07-29T19:20:22.157Z,19.35
2022-07-29T19:22:52.682Z,19.30
2022-07-29T19:25:23.912Z,19.29
2022-07-29T19:27:54.435Z,19.31
2022-07-29T19:30:26.848Z,19.22
2022-07-29T19:32:57.474Z,19.35
2022-07-29T19:35:28.981Z,19.29
2022-07-29T19:38:00.323Z,19.28
2022-07-29T19:40:32.448Z,19.31
2022-07-29T19:43:03.032Z,19.33
2022-07-29T19:45:55.556Z,19.34
2022-07-29T19:48:26.218Z,19.37
2022-07-29T19:50:56.809Z,19.38
2022-07-29T19:53:27.499Z,19.36
2022-07-29T19:55:58.101Z,19.38
2022-07-29T19:58:28.694Z,19.40
2022-07-29T20:01:01.152Z,19.45
2022-07-29T20:03:31.726Z,19.42
2022-07-29T20:06:02.341Z,19.20
2022-07-29T20:08:32.845Z,19.43
2022-07-29T20:11:03.319Z,19.40
2022-07-29T20:13:34.476Z,19.36
2022-07-29T20:16:09.065Z,19.43
2022-07-29T20:18:39.727Z,19.47
2022-07-29T20:21:10.307Z,19.47
2022-07-29T20:23:40.895Z,19.48
2022-07-29T20:26:11.450Z,19.50
2022-07-29T20:28:43.530Z,19.56
2022-07-29T20:31:17.891Z,19.63
2022-07-29T20:33:48.532Z,19.71
2022-07-29T20:36:19.273Z,19.76
2022-07-29T20:38:49.798Z,19.85
2022-07-29T20:41:20.379Z,19.93
2022-07-29T20:43:51.159Z,19.97
2022-07-29T20:46:23.437Z,20.05
2022-07-29T20:48:54.418Z,20.13
2022-07-29T20:51:25.088Z,20.24
2022-07-29T20:53:55.613Z,20.40
2022-07-29T20:56:26.155Z,20.57
2022-07-29T20:58:56.729Z,20.77
2022-07-29T21:01:29.044Z,20.97
2022-07-29T21:03:59.660Z,21.22
2022-07-29T21:06:30.356Z,21.50
2022-07-29T21:09:01.911Z,21.80
2022-07-29T21:11:44.509Z,22.06
2022-07-29T21:14:28.305Z,22.14
2022-07-29T21:17:00.977Z,22.22
2022-07-29T21:19:31.701Z,22.11
2022-07-29T21:22:02.230Z,22.09
2022-07-29T21:24:32.902Z,22.07
2022-07-29T21:27:21.182Z,22.18
2022-07-29T21:29:52.278Z,22.15
2022-07-29T21:32:27.449Z,22.17
2022-07-29T21:35:00.810Z,22.15
2022-07-29T21:37:31.426Z,22.19
2022-07-29T21:40:01.984Z,22.38
2022-07-29T21:42:32.569Z,22.51
2022-07-29T21:45:03.517Z,22.75
2022-07-29T21:47:35.806Z,22.70
2022-07-29T21:50:06.550Z,22.61
2022-07-29T21:52:37.321Z,22.65
2022-07-29T21:55:09.424Z,22.82
2022-07-29T21:57:41.990Z,23.06
2022-07-29T22:00:16.430Z,23.27
2022-07-29T22:02:48.869Z,23.31
2022-07-29T22:05:19.424Z,23.53
2022-07-29T22:07:55.475Z,23.60
2022-07-29T22:10:28.081Z,23.76
2022-07-29T22:12:59.796Z,23.83
2022-07-29T22:15:30.744Z,23.87
2022-07-29T22:18:03.344Z,23.91
2022-07-29T22:20:33.910Z,23.97
2022-07-29T22:23:05.394Z,24.08
2022-07-29T22:25:36.367Z,24.19
2022-07-29T22:28:07.548Z,24.38
2022-07-29T22:30:38.119Z,24.53
2022-07-29T22:33:10.304Z,24.67
2022-07-29T22:35:49.185Z,24.80
2022-07-29T22:38:20.271Z,24.95
2022-07-29T22:40:52.039Z,25.03
2022-07-29T22:43:23.377Z,25.08
2022-07-29T22:45:54.338Z,24.94
2022-07-29T22:48:26.752Z,24.46
2022-07-29T22:50:57.339Z,24.28
2022-07-29T22:53:27.889Z,24.13
2022-07-29T22:55:58.443Z,24.17
2022-07-29T22:58:29.023Z,24.08
2022-07-29T23:00:59.640Z,24.28
2022-07-29T23:03:32.065Z,24.52
2022-07-29T23:06:02.684Z,24.82
2022-07-29T23:08:33.346Z,25.08
2022-07-29T23:11:04.053Z,25.28
2022-07-29T23:13:34.628Z,25.46
2022-07-29T23:16:05.104Z,25.60
2022-07-29T23:18:37.338Z,25.66
2022-07-29T23:21:08.036Z,25.68
2022-07-29T23:23:38.800Z,25.58
2022-07-29T23:26:09.379Z,25.56
2022-07-29T23:28:40.108Z,25.68
2022-07-29T23:31:10.699Z,25.71
2022-07-29T23:33:42.926Z,25.73
2022-07-29T23:36:13.644Z,25.87
2022-07-29T23:38:45.002Z,26.02
2022-07-29T23:41:15.659Z,26.01
2022-07-29T23:43:46.179Z,26.12
2022-07-29T23:46:16.859Z,26.05
2022-07-29T23:48:56.393Z,25.96
2022-07-29T23:51:26.991Z,26.07
2022-07-29T23:53:57.577Z,26.19
2022-07-29T23:56:28.187Z,26.36
2022-07-29T23:58:58.726Z,26.46
